sensor_id;sensor_type;location;lat;lon;timestamp;P1;durP1;ratioP1;P2;durP2;ratioP2
27670;SDS011;15077;49.704;9.908;2022-12-07T00:01:19;6.07;;;4.03;;
27670;SDS011;15077;49.704;9.908;2022-12-07T00:03:53;7.75;;;4.70;;
27670;SDS011;15077;49.704;9.908;2022-12-07T00:06:28;6.03;;;4.15;;
27670;SDS011;15077;49.704;9.908;2022-12-07T00:08:55;6.40;;;4.03;;
27670;SDS011;15077;49.704;9.908;2022-12-07T00:11:23;7.82;;;5.38;;
27670;SDS011;15077;49.704;9.908;2022-12-07T00:13:54;7.70;;;5.18;;
27670;SDS011;15077;49.704;9.908;2022-12-07T00:16:23;7.72;;;4.57;;
27670;SDS011;15077;49.704;9.908;2022-12-07T00:18:53;8.38;;;5.13;;
27670;SDS011;15077;49.704;9.908;2022-12-07T00:21:29;8.73;;;5.35;;
27670;SDS011;15077;49.704;9.908;2022-12-07T00:23:58;10.57;;;6.03;;
27670;SDS011;15077;49.704;9.908;2022-12-07T00:26:28;7.75;;;4.90;;
27670;SDS011;15077;49.704;9.908;2022-12-07T00:29:03;9.50;;;5.82;;
27670;SDS011;15077;49.704;9.908;2022-12-07T00:31:44;10.60;;;6.43;;
27670;SDS011;15077;49.704;9.908;2022-12-07T00:34:18;10.88;;;6.38;;
27670;SDS011;15077;49.704;9.908;2022-12-07T00:36:46;11.73;;;6.40;;
27670;SDS011;15077;49.704;9.908;2022-12-07T00:39:12;9.93;;;6.07;;
27670;SDS011;15077;49.704;9.908;2022-12-07T00:41:38;8.35;;;6.20;;
27670;SDS011;15077;49.704;9.908;2022-12-07T00:44:04;10.57;;;6.25;;
27670;SDS011;15077;49.704;9.908;2022-12-07T00:46:30;9.43;;;5.55;;
27670;SDS011;15077;49.704;9.908;2022-12-07T00:48:56;11.60;;;6.53;;
27670;SDS011;15077;49.704;9.908;2022-12-07T00:51:23;11.82;;;7.40;;
27670;SDS011;15077;49.704;9.908;2022-12-07T00:53:50;10.05;;;6.20;;
27670;SDS011;15077;49.704;9.908;2022-12-07T00:56:18;9.52;;;5.65;;
27670;SDS011;15077;49.704;9.908;2022-12-07T00:58:59;8.90;;;6.18;;
27670;SDS011;15077;49.704;9.908;2022-12-07T01:01:29;10.70;;;6.65;;
27670;SDS011;15077;49.704;9.908;2022-12-07T01:04:01;11.63;;;6.63;;
27670;SDS011;15077;49.704;9.908;2022-12-07T01:06:28;10.75;;;6.93;;
27670;SDS011;15077;49.704;9.908;2022-12-07T01:09:00;14.13;;;8.57;;
27670;SDS011;15077;49.704;9.908;2022-12-07T01:11:29;11.60;;;6.88;;
27670;SDS011;15077;49.704;9.908;2022-12-07T01:13:56;10.90;;;7.10;;
27670;SDS011;15077;49.704;9.908;2022-12-07T01:16:25;11.07;;;6.75;;
27670;SDS011;15077;49.704;9.908;2022-12-07T01:18:55;10.32;;;6.75;;
27670;SDS011;15077;49.704;9.908;2022-12-07T01:21:24;11.32;;;7.07;;
27670;SDS011;15077;49.704;9.908;2022-12-07T01:23:53;12.43;;;8.13;;
27670;SDS011;15077;49.704;9.908;2022-12-07T01:26:23;12.60;;;8.15;;
27670;SDS011;15077;49.704;9.908;2022-12-07T01:28:50;14.52;;;7.53;;
27670;SDS011;15077;49.704;9.908;2022-12-07T01:31:23;12.50;;;6.63;;
27670;SDS011;15077;49.704;9.908;2022-12-07T01:33:52;9.93;;;6.33;;
27670;SDS011;15077;49.704;9.908;2022-12-07T01:38:49;13.32;;;8.15;;
27670;SDS011;15077;49.704;9.908;2022-12-07T01:41:21;13.98;;;8.30;;
27670;SDS011;15077;49.704;9.908;2022-12-07T01:47:02;11.27;;;7.15;;
27670;SDS011;15077;49.704;9.908;2022-12-07T01:49:37;11.85;;;7.30;;
27670;SDS011;15077;49.704;9.908;2022-12-07T01:54:46;15.32;;;8.52;;
27670;SDS011;15077;49.704;9.908;2022-12-07T01:57:16;13.48;;;7.75;;
27670;SDS011;15077;49.704;9.908;2022-12-07T01:59:45;13.23;;;8.05;;
27670;SDS011;15077;49.704;9.908;2022-12-07T02:02:17;17.95;;;9.73;;
27670;SDS011;15077;49.704;9.908;2022-12-07T02:04:52;13.38;;;7.57;;
27670;SDS011;15077;49.704;9.908;2022-12-07T02:07:20;15.05;;;9.77;;
27670;SDS011;15077;49.704;9.908;2022-12-07T02:09:48;16.48;;;8.93;;
27670;SDS011;15077;49.704;9.908;2022-12-07T02:12:14;13.57;;;8.93;;
27670;SDS011;15077;49.704;9.908;2022-12-07T02:14:40;18.83;;;9.88;;
27670;SDS011;15077;49.704;9.908;2022-12-07T02:23:14;14.07;;;8.93;;
27670;SDS011;15077;49.704;9.908;2022-12-07T02:29:34;13.10;;;8.38;;
27670;SDS011;15077;49.704;9.908;2022-12-07T02:34:49;15.20;;;9.05;;
27670;SDS011;15077;49.704;9.908;2022-12-07T02:40:13;16.67;;;9.80;;
27670;SDS011;15077;49.704;9.908;2022-12-07T02:42:49;16.23;;;9.45;;
27670;SDS011;15077;49.704;9.908;2022-12-07T02:45:21;14.00;;;8.48;;
27670;SDS011;15077;49.704;9.908;2022-12-07T02:47:53;17.15;;;10.30;;
27670;SDS011;15077;49.704;9.908;2022-12-07T02:50:24;15.90;;;8.90;;
27670;SDS011;15077;49.704;9.908;2022-12-07T02:52:51;13.07;;;7.70;;
27670;SDS011;15077;49.704;9.908;2022-12-07T02:55:18;14.95;;;9.38;;
27670;SDS011;15077;49.704;9.908;2022-12-07T03:03:48;16.70;;;9.95;;
27670;SDS011;15077;49.704;9.908;2022-12-07T03:07:11;18.95;;;10.30;;
27670;SDS011;15077;49.704;9.908;2022-12-07T03:18:55;17.05;;;9.90;;
27670;SDS011;15077;49.704;9.908;2022-12-07T03:24:04;17.98;;;10.00;;
27670;SDS011;15077;49.704;9.908;2022-12-07T03:26:41;15.77;;;9.68;;
27670;SDS011;15077;49.704;9.908;2022-12-07T03:29:23;14.32;;;8.57;;
27670;SDS011;15077;49.704;9.908;2022-12-07T03:31:58;13.98;;;9.13;;
27670;SDS011;15077;49.704;9.908;2022-12-07T03:34:34;14.48;;;9.00;;
27670;SDS011;15077;49.704;9.908;2022-12-07T03:37:17;18.45;;;9.45;;
27670;SDS011;15077;49.704;9.908;2022-12-07T03:40:03;17.10;;;9.68;;
27670;SDS011;15077;49.704;9.908;2022-12-07T03:42:50;16.08;;;9.95;;
27670;SDS011;15077;49.704;9.908;2022-12-07T03:45:20;19.63;;;9.93;;
27670;SDS011;15077;49.704;9.908;2022-12-07T03:51:00;14.50;;;8.13;;
27670;SDS011;15077;49.704;9.908;2022-12-07T03:53:37;13.93;;;8.02;;
27670;SDS011;15077;49.704;9.908;2022-12-07T03:56:11;14.90;;;9.13;;
27670;SDS011;15077;49.704;9.908;2022-12-07T03:58:38;13.55;;;8.82;;
27670;SDS011;15077;49.704;9.908;2022-12-07T04:01:06;16.67;;;10.18;;
27670;SDS011;15077;49.704;9.908;2022-12-07T04:03:32;16.90;;;9.77;;
27670;SDS011;15077;49.704;9.908;2022-12-07T04:05:58;14.70;;;9.25;;
27670;SDS011;15077;49.704;9.908;2022-12-07T04:08:24;17.20;;;9.68;;
27670;SDS011;15077;49.704;9.908;2022-12-07T04:10:50;14.52;;;8.88;;
27670;SDS011;15077;49.704;9.908;2022-12-07T04:13:16;16.73;;;9.77;;
27670;SDS011;15077;49.704;9.908;2022-12-07T04:15:42;15.77;;;9.38;;
27670;SDS011;15077;49.704;9.908;2022-12-07T04:18:08;14.57;;;9.02;;
27670;SDS011;15077;49.704;9.908;2022-12-07T04:20:33;18.05;;;9.25;;
27670;SDS011;15077;49.704;9.908;2022-12-07T04:22:59;14.65;;;9.20;;
27670;SDS011;15077;49.704;9.908;2022-12-07T04:25:25;14.82;;;9.27;;
27670;SDS011;15077;49.704;9.908;2022-12-07T04:27:50;16.75;;;9.07;;
27670;SDS011;15077;49.704;9.908;2022-12-07T04:30:16;15.23;;;9.35;;
27670;SDS011;15077;49.704;9.908;2022-12-07T04:32:44;17.70;;;10.65;;
27670;SDS011;15077;49.704;9.908;2022-12-07T04:35:09;16.42;;;10.07;;
27670;SDS011;15077;49.704;9.908;2022-12-07T04:37:35;15.85;;;10.15;;
27670;SDS011;15077;49.704;9.908;2022-12-07T04:40:01;14.63;;;9.10;;
27670;SDS011;15077;49.704;9.908;2022-12-07T04:42:27;14.57;;;9.57;;
27670;SDS011;15077;49.704;9.908;2022-12-07T04:44:53;16.33;;;9.07;;
27670;SDS011;15077;49.704;9.908;2022-12-07T04:47:18;17.45;;;9.85;;
27670;SDS011;15077;49.704;9.908;2022-12-07T04:49:45;17.67;;;9.88;;
27670;SDS011;15077;49.704;9.908;2022-12-07T04:52:11;14.73;;;8.85;;
27670;SDS011;15077;49.704;9.908;2022-12-07T04:54:37;16.13;;;9.45;;
27670;SDS011;15077;49.704;9.908;2022-12-07T04:57:03;16.60;;;9.27;;
27670;SDS011;15077;49.704;9.908;2022-12-07T04:59:28;16.55;;;9.52;;
27670;SDS011;15077;49.704;9.908;2022-12-07T05:01:54;18.30;;;10.40;;
27670;SDS011;15077;49.704;9.908;2022-12-07T05:04:20;16.45;;;9.85;;
27670;SDS011;15077;49.704;9.908;2022-12-07T05:06:45;18.45;;;10.10;;
27670;SDS011;15077;49.704;9.908;2022-12-07T05:09:11;18.20;;;10.30;;
27670;SDS011;15077;49.704;9.908;2022-12-07T05:11:37;18.92;;;10.18;;
27670;SDS011;15077;49.704;9.908;2022-12-07T05:14:04;18.27;;;11.10;;
27670;SDS011;15077;49.704;9.908;2022-12-07T05:16:33;15.00;;;9.75;;
27670;SDS011;15077;49.704;9.908;2022-12-07T05:18:59;16.30;;;9.20;;
27670;SDS011;15077;49.704;9.908;2022-12-07T05:21:25;14.52;;;8.80;;
27670;SDS011;15077;49.704;9.908;2022-12-07T05:23:51;13.57;;;8.00;;
27670;SDS011;15077;49.704;9.908;2022-12-07T05:26:17;17.02;;;11.48;;
27670;SDS011;15077;49.704;9.908;2022-12-07T05:28:43;17.52;;;11.88;;
27670;SDS011;15077;49.704;9.908;2022-12-07T05:31:09;19.48;;;11.68;;
27670;SDS011;15077;49.704;9.908;2022-12-07T05:33:35;20.33;;;12.25;;
27670;SDS011;15077;49.704;9.908;2022-12-07T05:36:01;16.70;;;9.82;;
27670;SDS011;15077;49.704;9.908;2022-12-07T05:38:32;19.83;;;11.07;;
27670;SDS011;15077;49.704;9.908;2022-12-07T05:41:02;16.90;;;9.85;;
27670;SDS011;15077;49.704;9.908;2022-12-07T05:43:30;14.20;;;8.52;;
27670;SDS011;15077;49.704;9.908;2022-12-07T05:45:57;12.65;;;7.90;;
27670;SDS011;15077;49.704;9.908;2022-12-07T05:48:23;16.27;;;9.77;;
27670;SDS011;15077;49.704;9.908;2022-12-07T05:50:51;19.58;;;11.75;;
27670;SDS011;15077;49.704;9.908;2022-12-07T05:53:17;19.23;;;10.40;;
27670;SDS011;15077;49.704;9.908;2022-12-07T05:55:43;22.20;;;13.30;;
27670;SDS011;15077;49.704;9.908;2022-12-07T05:58:09;17.27;;;10.70;;
27670;SDS011;15077;49.704;9.908;2022-12-07T06:00:54;18.85;;;10.90;;
27670;SDS011;15077;49.704;9.908;2022-12-07T06:03:20;19.45;;;12.35;;
27670;SDS011;15077;49.704;9.908;2022-12-07T06:05:46;20.67;;;11.73;;
27670;SDS011;15077;49.704;9.908;2022-12-07T06:08:13;20.33;;;10.88;;
27670;SDS011;15077;49.704;9.908;2022-12-07T06:10:39;16.67;;;10.55;;
27670;SDS011;15077;49.704;9.908;2022-12-07T06:13:07;18.92;;;11.18;;
27670;SDS011;15077;49.704;9.908;2022-12-07T06:15:37;20.63;;;12.63;;
27670;SDS011;15077;49.704;9.908;2022-12-07T06:18:03;17.88;;;10.95;;
27670;SDS011;15077;49.704;9.908;2022-12-07T06:20:28;22.13;;;11.88;;
27670;SDS011;15077;49.704;9.908;2022-12-07T06:22:54;22.23;;;12.18;;
27670;SDS011;15077;49.704;9.908;2022-12-07T06:25:20;19.45;;;10.98;;
27670;SDS011;15077;49.704;9.908;2022-12-07T06:27:46;18.60;;;9.93;;
27670;SDS011;15077;49.704;9.908;2022-12-07T06:30:11;18.75;;;11.35;;
27670;SDS011;15077;49.704;9.908;2022-12-07T06:32:37;17.77;;;10.45;;
27670;SDS011;15077;49.704;9.908;2022-12-07T06:35:03;20.13;;;11.05;;
27670;SDS011;15077;49.704;9.908;2022-12-07T06:37:29;17.83;;;10.60;;
27670;SDS011;15077;49.704;9.908;2022-12-07T06:39:55;20.25;;;11.68;;
27670;SDS011;15077;49.704;9.908;2022-12-07T06:42:21;21.38;;;12.57;;
27670;SDS011;15077;49.704;9.908;2022-12-07T06:44:47;20.65;;;11.93;;
27670;SDS011;15077;49.704;9.908;2022-12-07T06:47:12;19.48;;;10.88;;
27670;SDS011;15077;49.704;9.908;2022-12-07T06:49:38;19.05;;;10.77;;
27670;SDS011;15077;49.704;9.908;2022-12-07T06:52:04;18.05;;;10.65;;
27670;SDS011;15077;49.704;9.908;2022-12-07T06:54:30;17.42;;;10.32;;
27670;SDS011;15077;49.704;9.908;2022-12-07T06:56:56;17.15;;;10.27;;
27670;SDS011;15077;49.704;9.908;2022-12-07T06:59:22;17.52;;;10.32;;
27670;SDS011;15077;49.704;9.908;2022-12-07T07:01:48;19.00;;;10.70;;
27670;SDS011;15077;49.704;9.908;2022-12-07T07:04:13;23.58;;;13.82;;
27670;SDS011;15077;49.704;9.908;2022-12-07T07:06:39;21.88;;;11.82;;
27670;SDS011;15077;49.704;9.908;2022-12-07T07:09:05;19.88;;;11.25;;
27670;SDS011;15077;49.704;9.908;2022-12-07T07:11:31;22.38;;;11.57;;
27670;SDS011;15077;49.704;9.908;2022-12-07T07:13:57;17.88;;;10.63;;
27670;SDS011;15077;49.704;9.908;2022-12-07T07:16:27;20.55;;;11.50;;
27670;SDS011;15077;49.704;9.908;2022-12-07T07:18:55;21.95;;;12.23;;
27670;SDS011;15077;49.704;9.908;2022-12-07T07:21:21;20.52;;;11.57;;
27670;SDS011;15077;49.704;9.908;2022-12-07T07:23:47;19.98;;;11.80;;
27670;SDS011;15077;49.704;9.908;2022-12-07T07:26:13;15.45;;;9.80;;
27670;SDS011;15077;49.704;9.908;2022-12-07T07:28:38;18.55;;;10.30;;
27670;SDS011;15077;49.704;9.908;2022-12-07T07:31:04;14.80;;;9.52;;
27670;SDS011;15077;49.704;9.908;2022-12-07T07:33:30;16.00;;;9.95;;
27670;SDS011;15077;49.704;9.908;2022-12-07T07:35:55;18.45;;;10.63;;
27670;SDS011;15077;49.704;9.908;2022-12-07T07:38:21;18.23;;;10.15;;
27670;SDS011;15077;49.704;9.908;2022-12-07T07:40:47;15.30;;;9.20;;
27670;SDS011;15077;49.704;9.908;2022-12-07T07:43:13;18.05;;;9.85;;
27670;SDS011;15077;49.704;9.908;2022-12-07T07:45:38;16.67;;;9.02;;
27670;SDS011;15077;49.704;9.908;2022-12-07T07:48:05;14.60;;;8.88;;
27670;SDS011;15077;49.704;9.908;2022-12-07T07:50:31;15.80;;;8.63;;
27670;SDS011;15077;49.704;9.908;2022-12-07T07:52:57;17.17;;;9.43;;
27670;SDS011;15077;49.704;9.908;2022-12-07T07:55:23;16.08;;;9.27;;
27670;SDS011;15077;49.704;9.908;2022-12-07T07:57:48;15.32;;;9.27;;
27670;SDS011;15077;49.704;9.908;2022-12-07T08:00:14;16.40;;;8.88;;
27670;SDS011;15077;49.704;9.908;2022-12-07T08:02:41;15.88;;;9.10;;
27670;SDS011;15077;49.704;9.908;2022-12-07T08:05:08;14.05;;;8.63;;
27670;SDS011;15077;49.704;9.908;2022-12-07T08:07:36;13.30;;;7.93;;
27670;SDS011;15077;49.704;9.908;2022-12-07T08:10:02;14.00;;;8.20;;
27670;SDS011;15077;49.704;9.908;2022-12-07T08:12:28;13.90;;;8.38;;
27670;SDS011;15077;49.704;9.908;2022-12-07T08:14:54;15.05;;;9.13;;
27670;SDS011;15077;49.704;9.908;2022-12-07T08:17:20;17.02;;;10.43;;
27670;SDS011;15077;49.704;9.908;2022-12-07T08:19:45;17.58;;;11.82;;
27670;SDS011;15077;49.704;9.908;2022-12-07T08:22:11;16.73;;;11.32;;
27670;SDS011;15077;49.704;9.908;2022-12-07T08:24:37;15.00;;;10.02;;
27670;SDS011;15077;49.704;9.908;2022-12-07T08:27:03;15.95;;;9.82;;
27670;SDS011;15077;49.704;9.908;2022-12-07T08:29:29;13.88;;;8.10;;
27670;SDS011;15077;49.704;9.908;2022-12-07T08:31:55;14.82;;;8.95;;
27670;SDS011;15077;49.704;9.908;2022-12-07T08:34:21;16.25;;;10.43;;
27670;SDS011;15077;49.704;9.908;2022-12-07T08:36:47;13.45;;;8.25;;
27670;SDS011;15077;49.704;9.908;2022-12-07T08:39:12;11.50;;;7.50;;
27670;SDS011;15077;49.704;9.908;2022-12-07T08:41:38;12.63;;;7.82;;
27670;SDS011;15077;49.704;9.908;2022-12-07T08:44:04;14.27;;;8.73;;
27670;SDS011;15077;49.704;9.908;2022-12-07T08:49:16;14.50;;;7.93;;
27670;SDS011;15077;49.704;9.908;2022-12-07T08:51:49;13.90;;;7.93;;
27670;SDS011;15077;49.704;9.908;2022-12-07T08:54:16;10.02;;;6.95;;
27670;SDS011;15077;49.704;9.908;2022-12-07T08:56:44;12.18;;;7.57;;
27670;SDS011;15077;49.704;9.908;2022-12-07T08:59:12;10.52;;;7.10;;
27670;SDS011;15077;49.704;9.908;2022-12-07T09:01:41;12.77;;;7.07;;
27670;SDS011;15077;49.704;9.908;2022-12-07T09:04:07;12.70;;;8.45;;
27670;SDS011;15077;49.704;9.908;2022-12-07T09:06:33;11.60;;;7.70;;
27670;SDS011;15077;49.704;9.908;2022-12-07T09:08:59;15.30;;;10.18;;
27670;SDS011;15077;49.704;9.908;2022-12-07T09:11:27;13.80;;;8.38;;
27670;SDS011;15077;49.704;9.908;2022-12-07T09:13:53;11.68;;;7.00;;
27670;SDS011;15077;49.704;9.908;2022-12-07T09:16:19;11.77;;;7.47;;
27670;SDS011;15077;49.704;9.908;2022-12-07T09:18:44;12.45;;;7.30;;
27670;SDS011;15077;49.704;9.908;2022-12-07T09:21:10;12.75;;;6.40;;
27670;SDS011;15077;49.704;9.908;2022-12-07T09:23:36;11.80;;;7.35;;
27670;SDS011;15077;49.704;9.908;2022-12-07T09:26:02;12.95;;;8.05;;
27670;SDS011;15077;49.704;9.908;2022-12-07T09:28:30;11.73;;;6.95;;
27670;SDS011;15077;49.704;9.908;2022-12-07T09:30:56;10.85;;;6.85;;
27670;SDS011;15077;49.704;9.908;2022-12-07T09:33:23;11.40;;;6.63;;
27670;SDS011;15077;49.704;9.908;2022-12-07T09:35:51;14.00;;;8.55;;
27670;SDS011;15077;49.704;9.908;2022-12-07T09:38:19;12.20;;;7.50;;
27670;SDS011;15077;49.704;9.908;2022-12-07T09:40:46;10.75;;;7.03;;
27670;SDS011;15077;49.704;9.908;2022-12-07T09:43:15;10.43;;;6.35;;
27670;SDS011;15077;49.704;9.908;2022-12-07T09:45:51;11.98;;;7.28;;
27670;SDS011;15077;49.704;9.908;2022-12-07T09:48:21;10.48;;;6.93;;
27670;SDS011;15077;49.704;9.908;2022-12-07T09:51:11;11.45;;;6.95;;
27670;SDS011;15077;49.704;9.908;2022-12-07T09:53:46;11.00;;;6.70;;
27670;SDS011;15077;49.704;9.908;2022-12-07T09:56:14;10.82;;;6.47;;
27670;SDS011;15077;49.704;9.908;2022-12-07T09:58:43;12.60;;;7.18;;
27670;SDS011;15077;49.704;9.908;2022-12-07T10:03:50;10.63;;;6.45;;
27670;SDS011;15077;49.704;9.908;2022-12-07T10:06:20;14.00;;;7.97;;
27670;SDS011;15077;49.704;9.908;2022-12-07T10:08:46;11.40;;;7.13;;
27670;SDS011;15077;49.704;9.908;2022-12-07T10:11:13;10.93;;;6.47;;
27670;SDS011;15077;49.704;9.908;2022-12-07T10:18:53;8.27;;;5.78;;
27670;SDS011;15077;49.704;9.908;2022-12-07T10:21:20;7.10;;;5.20;;
27670;SDS011;15077;49.704;9.908;2022-12-07T10:26:40;9.00;;;5.63;;
27670;SDS011;15077;49.704;9.908;2022-12-07T10:29:14;10.68;;;6.68;;
27670;SDS011;15077;49.704;9.908;2022-12-07T10:34:40;9.05;;;5.43;;
27670;SDS011;15077;49.704;9.908;2022-12-07T10:39:45;8.03;;;6.10;;
27670;SDS011;15077;49.704;9.908;2022-12-07T10:42:19;8.52;;;6.13;;
27670;SDS011;15077;49.704;9.908;2022-12-07T10:51:02;6.95;;;4.20;;
27670;SDS011;15077;49.704;9.908;2022-12-07T10:54:16;8.07;;;5.20;;
27670;SDS011;15077;49.704;9.908;2022-12-07T11:00:03;9.65;;;6.43;;
27670;SDS011;15077;49.704;9.908;2022-12-07T11:05:39;7.47;;;4.70;;
27670;SDS011;15077;49.704;9.908;2022-12-07T11:09:16;6.95;;;4.72;;
27670;SDS011;15077;49.704;9.908;2022-12-07T11:11:36;10.55;;;6.93;;
27670;SDS011;15077;49.704;9.908;2022-12-07T11:17:03;8.32;;;5.68;;
27670;SDS011;15077;49.704;9.908;2022-12-07T11:28:13;11.57;;;5.82;;
27670;SDS011;15077;49.704;9.908;2022-12-07T11:31:00;7.88;;;4.95;;
27670;SDS011;15077;49.704;9.908;2022-12-07T11:39:16;6.75;;;4.50;;
27670;SDS011;15077;49.704;9.908;2022-12-07T11:42:03;6.30;;;4.13;;
27670;SDS011;15077;49.704;9.908;2022-12-07T11:48:23;10.52;;;5.85;;
27670;SDS011;15077;49.704;9.908;2022-12-07T11:55:47;8.60;;;6.15;;
27670;SDS011;15077;49.704;9.908;2022-12-07T12:03:47;6.18;;;4.70;;
27670;SDS011;15077;49.704;9.908;2022-12-07T12:06:23;8.70;;;5.32;;
27670;SDS011;15077;49.704;9.908;2022-12-07T12:20:35;7.10;;;4.75;;
27670;SDS011;15077;49.704;9.908;2022-12-07T12:23:14;7.75;;;5.40;;
27670;SDS011;15077;49.704;9.908;2022-12-07T12:25:46;7.70;;;4.90;;
27670;SDS011;15077;49.704;9.908;2022-12-07T12:28:21;6.32;;;4.65;;
27670;SDS011;15077;49.704;9.908;2022-12-07T12:33:34;7.85;;;5.15;;
27670;SDS011;15077;49.704;9.908;2022-12-07T12:39:26;5.20;;;3.97;;
27670;SDS011;15077;49.704;9.908;2022-12-07T12:47:02;6.88;;;4.40;;
27670;SDS011;15077;49.704;9.908;2022-12-07T12:50:19;6.22;;;3.78;;
27670;SDS011;15077;49.704;9.908;2022-12-07T12:58:46;6.82;;;4.03;;
27670;SDS011;15077;49.704;9.908;2022-12-07T13:01:36;5.30;;;3.75;;
27670;SDS011;15077;49.704;9.908;2022-12-07T13:04:16;5.20;;;3.38;;
27670;SDS011;15077;49.704;9.908;2022-12-07T13:06:49;8.32;;;4.50;;
27670;SDS011;15077;49.704;9.908;2022-12-07T13:09:19;8.32;;;5.60;;
27670;SDS011;15077;49.704;9.908;2022-12-07T13:12:12;5.75;;;3.47;;
27670;SDS011;15077;49.704;9.908;2022-12-07T13:28:32;4.40;;;2.70;;
27670;SDS011;15077;49.704;9.908;2022-12-07T13:39:47;10.13;;;6.38;;
27670;SDS011;15077;49.704;9.908;2022-12-07T13:42:23;8.43;;;5.07;;
27670;SDS011;15077;49.704;9.908;2022-12-07T13:45:13;9.52;;;4.85;;
27670;SDS011;15077;49.704;9.908;2022-12-07T13:48:08;10.20;;;5.20;;
27670;SDS011;15077;49.704;9.908;2022-12-07T13:50:53;6.03;;;4.20;;
27670;SDS011;15077;49.704;9.908;2022-12-07T13:53:21;9.95;;;5.57;;
27670;SDS011;15077;49.704;9.908;2022-12-07T13:55:47;7.88;;;5.68;;
27670;SDS011;15077;49.704;9.908;2022-12-07T13:58:13;7.03;;;5.30;;
27670;SDS011;15077;49.704;9.908;2022-12-07T14:00:39;6.75;;;5.32;;
27670;SDS011;15077;49.704;9.908;2022-12-07T14:05:42;16.33;;;9.18;;
27670;SDS011;15077;49.704;9.908;2022-12-07T14:10:36;17.52;;;10.55;;
27670;SDS011;15077;49.704;9.908;2022-12-07T14:13:44;13.23;;;7.95;;
27670;SDS011;15077;49.704;9.908;2022-12-07T14:16:02;8.90;;;6.03;;
27670;SDS011;15077;49.704;9.908;2022-12-07T14:18:42;8.73;;;5.50;;
27670;SDS011;15077;49.704;9.908;2022-12-07T14:23:34;8.65;;;6.30;;
27670;SDS011;15077;49.704;9.908;2022-12-07T14:26:09;10.45;;;6.38;;
27670;SDS011;15077;49.704;9.908;2022-12-07T14:28:40;8.30;;;5.13;;
27670;SDS011;15077;49.704;9.908;2022-12-07T14:31:15;8.77;;;5.90;;
27670;SDS011;15077;49.704;9.908;2022-12-07T14:33:46;8.38;;;6.40;;
27670;SDS011;15077;49.704;9.908;2022-12-07T14:36:12;13.40;;;8.77;;
27670;SDS011;15077;49.704;9.908;2022-12-07T14:38:39;12.70;;;8.23;;
27670;SDS011;15077;49.704;9.908;2022-12-07T14:41:06;12.18;;;8.75;;
27670;SDS011;15077;49.704;9.908;2022-12-07T14:44:01;11.80;;;8.27;;
27670;SDS011;15077;49.704;9.908;2022-12-07T14:46:41;11.40;;;7.13;;
27670;SDS011;15077;49.704;9.908;2022-12-07T14:49:07;8.98;;;6.68;;
27670;SDS011;15077;49.704;9.908;2022-12-07T14:51:33;9.60;;;6.03;;
27670;SDS011;15077;49.704;9.908;2022-12-07T14:54:04;10.02;;;7.00;;
27670;SDS011;15077;49.704;9.908;2022-12-07T14:59:02;7.60;;;5.30;;
27670;SDS011;15077;49.704;9.908;2022-12-07T15:01:27;8.18;;;5.07;;
27670;SDS011;15077;49.704;9.908;2022-12-07T15:03:53;7.43;;;4.82;;
27670;SDS011;15077;49.704;9.908;2022-12-07T15:06:19;9.60;;;5.88;;
27670;SDS011;15077;49.704;9.908;2022-12-07T15:08:45;9.18;;;6.40;;
27670;SDS011;15077;49.704;9.908;2022-12-07T15:11:14;11.65;;;6.60;;
27670;SDS011;15077;49.704;9.908;2022-12-07T15:13:42;7.70;;;5.75;;
27670;SDS011;15077;49.704;9.908;2022-12-07T15:16:26;8.20;;;5.38;;
27670;SDS011;15077;49.704;9.908;2022-12-07T15:18:52;9.02;;;6.45;;
27670;SDS011;15077;49.704;9.908;2022-12-07T15:21:18;8.00;;;5.75;;
27670;SDS011;15077;49.704;9.908;2022-12-07T15:23:44;9.23;;;6.20;;
27670;SDS011;15077;49.704;9.908;2022-12-07T15:26:12;10.95;;;7.85;;
27670;SDS011;15077;49.704;9.908;2022-12-07T15:28:38;17.77;;;9.15;;
27670;SDS011;15077;49.704;9.908;2022-12-07T15:31:11;10.25;;;6.00;;
27670;SDS011;15077;49.704;9.908;2022-12-07T15:33:38;12.98;;;8.43;;
27670;SDS011;15077;49.704;9.908;2022-12-07T15:36:04;13.40;;;9.35;;
27670;SDS011;15077;49.704;9.908;2022-12-07T15:38:30;15.35;;;9.52;;
27670;SDS011;15077;49.704;9.908;2022-12-07T15:40:56;11.00;;;8.20;;
27670;SDS011;15077;49.704;9.908;2022-12-07T15:43:22;15.25;;;9.75;;
27670;SDS011;15077;49.704;9.908;2022-12-07T15:46:06;13.98;;;9.23;;
27670;SDS011;15077;49.704;9.908;2022-12-07T15:48:32;21.67;;;12.98;;
27670;SDS011;15077;49.704;9.908;2022-12-07T15:51:07;20.55;;;14.43;;
27670;SDS011;15077;49.704;9.908;2022-12-07T15:53:34;17.25;;;10.90;;
27670;SDS011;15077;49.704;9.908;2022-12-07T15:56:00;24.45;;;14.23;;
27670;SDS011;15077;49.704;9.908;2022-12-07T15:58:30;22.02;;;15.45;;
27670;SDS011;15077;49.704;9.908;2022-12-07T16:00:56;16.65;;;11.18;;
27670;SDS011;15077;49.704;9.908;2022-12-07T16:03:22;15.57;;;8.88;;
27670;SDS011;15077;49.704;9.908;2022-12-07T16:05:48;14.82;;;8.43;;
27670;SDS011;15077;49.704;9.908;2022-12-07T16:08:15;14.00;;;7.63;;
27670;SDS011;15077;49.704;9.908;2022-12-07T16:10:41;14.20;;;9.25;;
27670;SDS011;15077;49.704;9.908;2022-12-07T16:13:08;11.52;;;7.35;;
27670;SDS011;15077;49.704;9.908;2022-12-07T16:15:39;12.05;;;7.57;;
27670;SDS011;15077;49.704;9.908;2022-12-07T16:20:33;11.98;;;7.85;;
27670;SDS011;15077;49.704;9.908;2022-12-07T16:23:00;9.90;;;5.63;;
27670;SDS011;15077;49.704;9.908;2022-12-07T16:25:26;10.68;;;7.25;;
27670;SDS011;15077;49.704;9.908;2022-12-07T16:27:52;13.93;;;10.13;;
27670;SDS011;15077;49.704;9.908;2022-12-07T16:30:18;9.40;;;7.15;;
27670;SDS011;15077;49.704;9.908;2022-12-07T16:32:44;8.73;;;5.97;;
27670;SDS011;15077;49.704;9.908;2022-12-07T16:35:10;8.23;;;5.00;;
27670;SDS011;15077;49.704;9.908;2022-12-07T16:37:37;10.80;;;6.93;;
27670;SDS011;15077;49.704;9.908;2022-12-07T16:40:03;16.40;;;10.00;;
27670;SDS011;15077;49.704;9.908;2022-12-07T16:42:34;27.27;;;15.40;;
27670;SDS011;15077;49.704;9.908;2022-12-07T16:45:00;18.58;;;11.20;;
27670;SDS011;15077;49.704;9.908;2022-12-07T16:47:27;9.77;;;6.63;;
27670;SDS011;15077;49.704;9.908;2022-12-07T16:49:53;7.80;;;6.10;;
27670;SDS011;15077;49.704;9.908;2022-12-07T16:52:20;9.27;;;6.18;;
27670;SDS011;15077;49.704;9.908;2022-12-07T16:54:46;8.77;;;7.00;;
27670;SDS011;15077;49.704;9.908;2022-12-07T16:57:14;8.68;;;7.20;;
27670;SDS011;15077;49.704;9.908;2022-12-07T16:59:41;9.60;;;5.80;;
27670;SDS011;15077;49.704;9.908;2022-12-07T17:02:08;10.45;;;7.55;;
27670;SDS011;15077;49.704;9.908;2022-12-07T17:04:37;23.45;;;19.25;;
27670;SDS011;15077;49.704;9.908;2022-12-07T17:07:07;22.23;;;15.90;;
27670;SDS011;15077;49.704;9.908;2022-12-07T17:09:33;22.00;;;17.27;;
27670;SDS011;15077;49.704;9.908;2022-12-07T17:12:00;24.17;;;18.05;;
27670;SDS011;15077;49.704;9.908;2022-12-07T17:14:26;20.02;;;14.35;;
27670;SDS011;15077;49.704;9.908;2022-12-07T17:17:10;18.65;;;13.80;;
27670;SDS011;15077;49.704;9.908;2022-12-07T17:19:36;27.20;;;17.55;;
27670;SDS011;15077;49.704;9.908;2022-12-07T17:22:02;21.92;;;14.68;;
27670;SDS011;15077;49.704;9.908;2022-12-07T17:24:27;18.52;;;13.52;;
27670;SDS011;15077;49.704;9.908;2022-12-07T17:26:53;25.73;;;16.38;;
27670;SDS011;15077;49.704;9.908;2022-12-07T17:29:19;21.17;;;14.18;;
27670;SDS011;15077;49.704;9.908;2022-12-07T17:31:45;18.00;;;13.40;;
27670;SDS011;15077;49.704;9.908;2022-12-07T17:34:13;16.17;;;10.77;;
27670;SDS011;15077;49.704;9.908;2022-12-07T17:36:40;12.88;;;9.15;;
27670;SDS011;15077;49.704;9.908;2022-12-07T17:39:07;14.30;;;9.15;;